createdAt,value
2022-08-29T00:00:42.664Z,5.20
2022-08-29T00:03:12.943Z,6.25
2022-08-29T00:05:42.023Z,6.18
2022-08-29T00:08:13.242Z,6.82
2022-08-29T00:10:43.236Z,5.63
2022-08-29T00:13:14.146Z,5.35
2022-08-29T00:15:45.180Z,5.68
2022-08-29T00:18:16.132Z,5.72
2022-08-29T00:20:45.427Z,5.53
2022-08-29T00:23:13.846Z,4.97
2022-08-29T00:25:43.054Z,5.43
2022-08-29T00:28:12.119Z,2.45
2022-08-29T00:30:41.207Z,3.95
2022-08-29T00:33:10.054Z,4.00
2022-08-29T00:35:41.532Z,3.22
2022-08-29T00:38:13.164Z,4.45
2022-08-29T00:40:51.850Z,6.28
2022-08-29T00:43:25.091Z,5.40
2022-08-29T00:46:19.885Z,4.80
2022-08-29T00:48:56.005Z,6.65
2022-08-29T00:51:25.233Z,7.70
2022-08-29T00:53:59.833Z,8.10
2022-08-29T00:56:29.395Z,5.00
2022-08-29T00:59:07.298Z,6.10
2022-08-29T01:01:35.877Z,5.10
2022-08-29T01:04:15.733Z,7.32
2022-08-29T01:09:21.047Z,5.85
2022-08-29T01:12:08.531Z,3.97
2022-08-29T01:14:38.744Z,9.32
2022-08-29T01:17:10.105Z,6.53
2022-08-29T01:19:49.801Z,7.93
2022-08-29T01:22:38.798Z,7.72
2022-08-29T01:25:13.135Z,6.45
2022-08-29T01:27:47.221Z,4.72
2022-08-29T01:30:17.833Z,7.78
2022-08-29T01:35:14.968Z,6.40
2022-08-29T01:37:44.672Z,5.93
2022-08-29T01:40:14.338Z,8.20
2022-08-29T01:42:44.385Z,3.90
2022-08-29T01:45:13.168Z,7.57
2022-08-29T01:47:41.919Z,6.60
2022-08-29T01:50:14.444Z,8.07
2022-08-29T01:52:43.042Z,7.38
2022-08-29T01:55:12.267Z,7.35
2022-08-29T01:57:40.965Z,10.90
2022-08-29T02:00:11.733Z,8.48
2022-08-29T02:02:41.287Z,7.20
2022-08-29T02:05:09.790Z,8.07
2022-08-29T02:07:38.428Z,6.63
2022-08-29T02:10:08.549Z,5.85
2022-08-29T02:12:36.913Z,4.38
2022-08-29T02:15:06.266Z,6.63
2022-08-29T02:17:34.825Z,6.07
2022-08-29T02:20:08.078Z,7.30
2022-08-29T02:22:39.026Z,4.22
2022-08-29T02:25:32.061Z,13.50
2022-08-29T02:28:00.386Z,8.18
2022-08-29T02:30:28.800Z,5.95
2022-08-29T02:32:58.027Z,8.75
2022-08-29T02:35:26.502Z,6.60
2022-08-29T02:37:57.316Z,7.80
2022-08-29T02:40:31.563Z,6.68
2022-08-29T02:43:01.694Z,4.28
2022-08-29T02:45:33.717Z,9.32
2022-08-29T02:48:02.504Z,10.23
2022-08-29T02:50:32.215Z,7.25
2022-08-29T02:53:01.243Z,6.43
2022-08-29T02:55:32.367Z,8.68
2022-08-29T02:58:00.734Z,6.43
2022-08-29T03:00:29.414Z,8.73
2022-08-29T03:03:00.088Z,5.47
2022-08-29T03:07:58.975Z,6.27
2022-08-29T03:10:27.881Z,5.63
2022-08-29T03:12:56.495Z,7.57
2022-08-29T03:15:26.319Z,8.85
2022-08-29T03:17:55.378Z,7.53
2022-08-29T03:20:24.627Z,6.88
2022-08-29T03:22:54.349Z,9.45
2022-08-29T03:25:24.422Z,7.03
2022-08-29T03:27:53.070Z,11.88
2022-08-29T03:30:24.091Z,6.45
2022-08-29T03:32:53.981Z,5.63
2022-08-29T03:35:22.744Z,3.67
2022-08-29T03:37:55.311Z,8.55
2022-08-29T03:40:25.595Z,5.15
2022-08-29T03:42:55.367Z,7.07
2022-08-29T03:45:25.701Z,4.50
2022-08-29T03:47:57.211Z,8.93
2022-08-29T03:50:25.573Z,7.50
2022-08-29T03:52:54.073Z,6.85
2022-08-29T03:55:22.610Z,6.63
2022-08-29T03:57:51.307Z,8.00
2022-08-29T04:00:20.155Z,8.45
2022-08-29T04:02:49.415Z,6.28
2022-08-29T04:05:18.171Z,6.78
2022-08-29T04:07:48.111Z,7.78
2022-08-29T04:10:24.508Z,6.80
2022-08-29T04:12:55.046Z,9.15
2022-08-29T04:15:26.579Z,9.38
2022-08-29T04:18:00.153Z,14.35
2022-08-29T04:20:37.802Z,7.95
2022-08-29T04:23:06.798Z,5.57
2022-08-29T04:25:38.110Z,10.10
2022-08-29T04:28:10.166Z,9.32
2022-08-29T04:30:40.220Z,10.23
2022-08-29T04:33:12.828Z,8.73
2022-08-29T04:35:52.169Z,7.45
2022-08-29T04:38:21.591Z,6.57
2022-08-29T04:40:50.070Z,8.25
2022-08-29T04:43:18.377Z,5.60
2022-08-29T04:45:54.542Z,12.32
2022-08-29T04:48:23.339Z,7.47
2022-08-29T04:50:59.438Z,10.57
2022-08-29T04:53:28.854Z,5.63
2022-08-29T04:56:11.988Z,8.00
2022-08-29T04:58:44.144Z,8.77
2022-08-29T05:01:14.525Z,11.13
2022-08-29T05:03:44.258Z,7.53
2022-08-29T05:06:14.720Z,9.00
2022-08-29T05:08:44.153Z,5.95
2022-08-29T05:11:22.600Z,12.13
2022-08-29T05:13:54.295Z,9.20
2022-08-29T05:16:23.693Z,8.95
2022-08-29T05:18:52.416Z,10.65
2022-08-29T05:21:34.008Z,12.25
2022-08-29T05:24:07.203Z,13.25
2022-08-29T05:26:39.383Z,7.32
2022-08-29T05:29:09.984Z,11.43
2022-08-29T05:34:18.392Z,8.85
2022-08-29T05:36:57.881Z,15.00
2022-08-29T05:39:26.355Z,10.80
2022-08-29T05:41:55.846Z,10.40
2022-08-29T05:44:24.846Z,10.73
2022-08-29T05:46:53.319Z,8.98
2022-08-29T05:49:22.261Z,9.98
2022-08-29T05:51:53.490Z,9.65
2022-08-29T05:54:23.651Z,12.10
2022-08-29T05:56:53.186Z,9.77
2022-08-29T05:59:21.968Z,10.07
2022-08-29T06:01:50.302Z,7.22
2022-08-29T06:04:24.420Z,10.25
2022-08-29T06:06:52.819Z,7.55
2022-08-29T06:09:21.274Z,16.33
2022-08-29T06:11:51.522Z,13.32
2022-08-29T06:14:20.910Z,10.23
2022-08-29T06:16:49.821Z,11.27
2022-08-29T06:19:21.850Z,6.63
2022-08-29T06:21:50.779Z,16.58
2022-08-29T06:24:19.161Z,10.07
2022-08-29T06:26:47.501Z,17.40
2022-08-29T06:29:16.765Z,8.05
2022-08-29T06:31:45.215Z,8.63
2022-08-29T06:34:13.554Z,12.55
2022-08-29T06:36:42.254Z,10.32
2022-08-29T06:39:11.865Z,11.48
2022-08-29T06:41:41.549Z,7.88
2022-08-29T06:44:10.470Z,12.70
2022-08-29T06:46:46.174Z,17.75
2022-08-29T06:49:16.326Z,12.70
2022-08-29T06:51:49.162Z,7.80
2022-08-29T06:54:20.191Z,10.05
2022-08-29T06:56:49.746Z,15.30
2022-08-29T06:59:19.661Z,12.82
2022-08-29T07:01:48.329Z,16.48
2022-08-29T07:04:16.861Z,13.38
2022-08-29T07:06:50.071Z,17.20
2022-08-29T07:09:21.626Z,9.93
2022-08-29T07:11:50.074Z,13.02
2022-08-29T07:14:18.714Z,9.90
2022-08-29T07:16:49.528Z,11.38
2022-08-29T07:19:18.097Z,11.55
2022-08-29T07:21:46.491Z,12.88
2022-08-29T07:24:14.927Z,10.55
2022-08-29T07:26:44.817Z,9.18
2022-08-29T07:29:17.573Z,13.18
2022-08-29T07:31:47.513Z,9.93
2022-08-29T07:34:20.740Z,12.88
2022-08-29T07:36:49.441Z,11.93
2022-08-29T07:39:23.129Z,12.60
2022-08-29T07:44:19.904Z,14.13
2022-08-29T07:46:48.487Z,11.80
2022-08-29T07:49:17.098Z,13.77
2022-08-29T07:51:48.035Z,6.82
2022-08-29T07:54:18.792Z,9.10
2022-08-29T07:56:49.553Z,10.38
2022-08-29T07:59:20.200Z,10.05
2022-08-29T08:01:49.336Z,9.32
2022-08-29T08:04:18.370Z,8.77
2022-08-29T08:06:48.007Z,10.77
2022-08-29T08:09:16.481Z,11.75
2022-08-29T08:11:44.990Z,9.65
2022-08-29T08:14:13.834Z,14.95
2022-08-29T08:16:44.104Z,9.63
2022-08-29T08:19:15.700Z,7.88
2022-08-29T08:21:49.566Z,10.57
2022-08-29T08:24:20.229Z,10.98
2022-08-29T08:26:49.304Z,17.10
2022-08-29T08:29:17.887Z,15.68
2022-08-29T08:31:49.307Z,14.95
2022-08-29T08:34:20.600Z,10.63
2022-08-29T08:36:50.414Z,9.65
2022-08-29T08:39:19.733Z,14.90
2022-08-29T08:42:05.602Z,8.43
2022-08-29T08:45:16.115Z,9.60
2022-08-29T08:48:02.946Z,10.45
2022-08-29T08:50:44.650Z,9.88
2022-08-29T08:53:17.114Z,6.43
2022-08-29T08:55:57.217Z,11.75
2022-08-29T08:58:35.553Z,8.27
2022-08-29T09:01:39.691Z,14.57
2022-08-29T09:04:27.184Z,13.57
2022-08-29T09:07:01.830Z,11.73
2022-08-29T09:09:45.361Z,13.38
2022-08-29T09:12:30.273Z,12.18
2022-08-29T09:15:10.471Z,7.75
2022-08-29T09:17:53.205Z,10.05
2022-08-29T09:20:28.810Z,10.85
2022-08-29T09:23:23.214Z,11.00
2022-08-29T09:25:52.192Z,15.38
2022-08-29T09:28:21.100Z,14.10
2022-08-29T09:31:27.192Z,7.47
2022-08-29T09:33:57.894Z,9.90
2022-08-29T09:36:42.030Z,10.98
2022-08-29T09:39:29.828Z,10.60
2022-08-29T09:42:11.910Z,12.65
2022-08-29T09:44:51.048Z,8.45
2022-08-29T09:47:25.195Z,6.65
2022-08-29T09:50:24.775Z,5.75
2022-08-29T09:52:59.583Z,8.27
2022-08-29T09:55:35.675Z,8.60
2022-08-29T09:58:10.781Z,9.65
2022-08-29T10:00:44.166Z,8.27
2022-08-29T10:03:22.834Z,9.63
2022-08-29T10:06:12.901Z,10.93
2022-08-29T10:08:54.746Z,15.40
2022-08-29T10:11:55.717Z,6.97
2022-08-29T10:14:50.420Z,7.88
2022-08-29T10:17:45.037Z,9.95
2022-08-29T10:20:13.617Z,8.68
2022-08-29T10:23:06.112Z,8.88
2022-08-29T10:25:41.381Z,10.30
2022-08-29T10:28:20.324Z,6.82
2022-08-29T10:31:13.004Z,7.50
2022-08-29T10:33:44.429Z,9.40
2022-08-29T10:36:18.109Z,9.27
2022-08-29T10:39:01.904Z,9.38
2022-08-29T10:41:50.357Z,6.15
2022-08-29T10:44:56.163Z,8.30
2022-08-29T10:47:32.836Z,9.43
2022-08-29T10:50:45.268Z,7.43
2022-08-29T10:53:39.074Z,5.55
2022-08-29T10:56:14.291Z,7.25
2022-08-29T10:59:05.504Z,8.88
2022-08-29T11:01:52.647Z,5.68
2022-08-29T11:04:30.044Z,7.13
2022-08-29T11:07:18.751Z,5.18
2022-08-29T11:09:52.302Z,10.15
2022-08-29T11:12:41.849Z,8.57
2022-08-29T11:15:36.311Z,8.95
2022-08-29T11:18:22.286Z,8.57
2022-08-29T11:20:57.855Z,3.45
2022-08-29T11:23:47.954Z,8.02
2022-08-29T11:26:26.709Z,6.55
2022-08-29T11:28:57.248Z,6.07
2022-08-29T11:34:31.778Z,5.35
2022-08-29T11:37:31.391Z,4.75
2022-08-29T11:40:47.343Z,5.85
2022-08-29T11:43:15.541Z,9.32
2022-08-29T11:45:53.381Z,10.65
2022-08-29T11:48:21.767Z,5.50
2022-08-29T11:50:50.268Z,6.35
2022-08-29T11:53:20.777Z,7.43
2022-08-29T11:56:14.158Z,7.88
2022-08-29T11:58:46.741Z,5.47
2022-08-29T12:01:24.537Z,7.38
2022-08-29T12:03:57.327Z,7.70
2022-08-29T12:06:31.895Z,8.05
2022-08-29T12:09:13.939Z,6.22
2022-08-29T12:12:20.215Z,7.82
2022-08-29T12:14:53.179Z,7.28
2022-08-29T12:17:45.128Z,7.78
2022-08-29T12:20:30.013Z,7.45
2022-08-29T12:26:03.701Z,6.40
2022-08-29T12:28:47.972Z,5.82
2022-08-29T12:32:02.094Z,2.58
2022-08-29T12:35:15.158Z,6.35
2022-08-29T12:38:19.090Z,6.25
2022-08-29T12:41:08.191Z,6.32
2022-08-29T12:43:42.974Z,4.47
2022-08-29T12:46:22.919Z,4.88
2022-08-29T12:48:58.536Z,5.40
2022-08-29T12:51:38.167Z,6.05
2022-08-29T12:54:08.056Z,7.93
2022-08-29T12:56:42.929Z,4.25
2022-08-29T12:59:19.380Z,4.82
2022-08-29T13:01:55.885Z,8.32
2022-08-29T13:04:32.065Z,5.35
2022-08-29T13:07:15.663Z,4.72
2022-08-29T13:09:53.539Z,8.10
2022-08-29T13:12:25.075Z,3.92
2022-08-29T13:14:53.477Z,6.28
2022-08-29T13:17:48.868Z,8.85
2022-08-29T13:20:40.894Z,4.47
2022-08-29T13:23:25.138Z,10.23
2022-08-29T13:26:00.876Z,8.52
2022-08-29T13:28:47.411Z,7.60
2022-08-29T13:31:15.942Z,5.13
2022-08-29T13:33:48.638Z,5.88
2022-08-29T13:36:51.058Z,6.55
2022-08-29T13:39:28.084Z,7.70
2022-08-29T13:42:02.490Z,6.60
2022-08-29T13:44:38.880Z,8.05
2022-08-29T13:47:26.456Z,6.00
2022-08-29T13:50:01.323Z,2.58
2022-08-29T13:52:31.947Z,3.05
2022-08-29T13:55:01.626Z,4.90
2022-08-29T13:57:31.667Z,6.20
2022-08-29T14:00:02.445Z,2.78
2022-08-29T14:02:51.628Z,5.25
2022-08-29T14:05:20.599Z,2.33
2022-08-29T14:07:50.474Z,8.27
2022-08-29T14:10:19.222Z,3.13
2022-08-29T14:12:47.798Z,2.70
2022-08-29T14:15:18.563Z,7.57
2022-08-29T14:17:48.280Z,3.80
2022-08-29T14:20:19.117Z,4.05
2022-08-29T14:22:48.796Z,5.15
2022-08-29T14:25:19.761Z,4.13
2022-08-29T14:27:49.273Z,5.88
2022-08-29T14:30:21.074Z,2.40
2022-08-29T14:32:49.464Z,5.28
2022-08-29T14:35:26.842Z,5.53
2022-08-29T14:38:01.499Z,4.03
2022-08-29T14:40:32.891Z,3.08
2022-08-29T14:43:02.864Z,4.35
2022-08-29T14:45:32.148Z,3.58
2022-08-29T14:48:01.580Z,2.83
2022-08-29T14:50:29.997Z,1.63
2022-08-29T14:53:08.248Z,2.17
2022-08-29T14:55:37.890Z,1.80
2022-08-29T14:58:08.366Z,5.43
2022-08-29T15:03:05.617Z,1.90
2022-08-29T15:05:34.648Z,1.77
2022-08-29T15:08:08.980Z,4.95
2022-08-29T15:10:40.113Z,2.55
2022-08-29T15:13:08.539Z,2.15
2022-08-29T15:15:36.977Z,2.92
2022-08-29T15:18:06.921Z,1.83
2022-08-29T15:20:37.256Z,2.75
2022-08-29T15:23:06.821Z,2.47
2022-08-29T15:25:35.812Z,2.22
2022-08-29T15:28:05.725Z,2.33
2022-08-29T15:30:52.673Z,3.53
2022-08-29T15:33:32.115Z,1.05
2022-08-29T15:36:01.681Z,1.95
2022-08-29T15:38:30.173Z,5.07
2022-08-29T15:40:58.582Z,4.53
2022-08-29T15:43:36.422Z,1.85
2022-08-29T15:46:06.432Z,2.85
2022-08-29T15:48:34.986Z,2.58
2022-08-29T15:51:04.351Z,5.72
2022-08-29T15:53:32.728Z,3.13
2022-08-29T15:56:01.758Z,3.83
2022-08-29T15:58:30.603Z,1.45
2022-08-29T16:00:59.339Z,2.88
2022-08-29T16:03:27.951Z,1.92
2022-08-29T16:05:57.493Z,2.78
2022-08-29T16:08:29.676Z,3.03
2022-08-29T16:11:06.056Z,3.15
2022-08-29T16:13:35.407Z,1.65
2022-08-29T16:16:03.770Z,2.25
2022-08-29T16:18:32.114Z,2.90
2022-08-29T16:21:00.604Z,4.10
2022-08-29T16:23:30.358Z,2.63
2022-08-29T16:25:58.795Z,2.43
2022-08-29T16:28:31.341Z,2.28
2022-08-29T16:31:00.123Z,3.42
2022-08-29T16:33:28.564Z,1.80
2022-08-29T16:35:59.139Z,2.40
2022-08-29T16:38:28.407Z,2.65
2022-08-29T16:40:56.785Z,1.15
2022-08-29T16:43:26.155Z,2.03
2022-08-29T16:45:54.674Z,3.55
2022-08-29T16:48:24.327Z,1.50
2022-08-29T16:50:54.247Z,2.50
2022-08-29T16:53:22.915Z,5.45
2022-08-29T16:55:51.220Z,5.00
2022-08-29T16:58:38.322Z,2.42
2022-08-29T17:01:07.541Z,3.13
2022-08-29T17:03:36.300Z,2.00
2022-08-29T17:06:05.827Z,6.40
2022-08-29T17:08:37.571Z,3.53
2022-08-29T17:11:06.588Z,2.22
2022-08-29T17:13:34.853Z,1.92
2022-08-29T17:16:06.784Z,2.75
2022-08-29T17:18:36.551Z,3.90
2022-08-29T17:21:06.394Z,6.90
2022-08-29T17:23:36.404Z,9.73
2022-08-29T17:26:08.627Z,5.97
2022-08-29T17:28:38.977Z,2.67
2022-08-29T17:31:09.102Z,1.95
2022-08-29T17:33:39.141Z,2.60
2022-08-29T17:38:41.160Z,3.55
2022-08-29T17:41:14.932Z,3.08
2022-08-29T17:43:50.019Z,1.63
2022-08-29T17:46:21.794Z,2.00
2022-08-29T17:48:50.671Z,3.15
2022-08-29T17:51:21.578Z,4.20
2022-08-29T17:53:52.131Z,1.27
2022-08-29T17:56:38.168Z,1.90
2022-08-29T17:59:14.287Z,2.70
2022-08-29T18:01:43.190Z,1.67
2022-08-29T18:04:11.968Z,1.80
2022-08-29T18:06:40.803Z,4.03
2022-08-29T18:09:13.514Z,4.00
2022-08-29T18:11:46.555Z,2.78
2022-08-29T18:14:15.699Z,3.70
2022-08-29T18:16:44.300Z,6.10
2022-08-29T18:19:17.591Z,5.40
2022-08-29T18:21:56.095Z,2.70
2022-08-29T18:24:28.099Z,4.13
2022-08-29T18:27:02.486Z,2.67
2022-08-29T18:29:34.118Z,3.35
2022-08-29T18:32:05.063Z,2.50
2022-08-29T18:34:38.826Z,2.70
2022-08-29T18:37:08.451Z,1.83
2022-08-29T18:39:37.029Z,5.83
2022-08-29T18:42:24.758Z,2.85
2022-08-29T18:44:56.886Z,2.58
2022-08-29T18:47:28.339Z,3.67
2022-08-29T18:50:15.442Z,3.30
2022-08-29T18:52:46.998Z,3.28
2022-08-29T18:55:19.685Z,3.83
2022-08-29T18:57:49.128Z,5.57
2022-08-29T19:00:18.638Z,3.67
2022-08-29T19:02:47.485Z,2.70
2022-08-29T19:05:17.338Z,6.20
2022-08-29T19:07:45.744Z,5.68
2022-08-29T19:10:14.373Z,1.60
2022-08-29T19:12:44.219Z,4.50
2022-08-29T19:15:17.993Z,3.67
2022-08-29T19:17:46.620Z,2.50
2022-08-29T19:20:37.441Z,3.15
2022-08-29T19:23:10.148Z,3.05
2022-08-29T19:25:40.190Z,5.18
2022-08-29T19:28:10.858Z,2.08
2022-08-29T19:30:39.745Z,5.90
2022-08-29T19:33:09.957Z,2.67
2022-08-29T19:35:39.377Z,4.10
2022-08-29T19:38:08.582Z,3.28
2022-08-29T19:40:39.144Z,2.20
2022-08-29T19:43:13.681Z,2.65
2022-08-29T19:45:48.781Z,2.00
2022-08-29T19:48:26.399Z,2.08
2022-08-29T19:50:58.915Z,3.22
2022-08-29T19:53:27.546Z,1.80
2022-08-29T19:55:56.581Z,2.08
2022-08-29T19:58:31.705Z,2.65
2022-08-29T20:01:03.359Z,2.55
2022-08-29T20:03:35.476Z,4.45
2022-08-29T20:06:07.590Z,6.20
2022-08-29T20:08:39.920Z,4.85
2022-08-29T20:11:24.749Z,4.57
2022-08-29T20:14:03.514Z,6.32
2022-08-29T20:16:32.722Z,7.32
2022-08-29T20:19:04.840Z,2.55
2022-08-29T20:21:34.889Z,3.50
2022-08-29T20:24:05.363Z,2.47
2022-08-29T20:26:35.821Z,2.33
2022-08-29T20:31:46.376Z,1.77
2022-08-29T20:34:15.772Z,3.67
2022-08-29T20:37:02.933Z,3.13
2022-08-29T20:39:32.479Z,4.38
2022-08-29T20:42:02.305Z,5.45
2022-08-29T20:44:34.162Z,1.90
2022-08-29T20:47:04.041Z,3.60
2022-08-29T20:49:33.835Z,2.63
2022-08-29T20:52:05.021Z,2.38
2022-08-29T20:54:35.314Z,3.28
2022-08-29T20:57:05.459Z,2.70
2022-08-29T20:59:36.132Z,4.65
2022-08-29T21:02:06.542Z,4.88
2022-08-29T21:04:53.400Z,3.55
2022-08-29T21:07:25.380Z,4.07
2022-08-29T21:09:55.809Z,2.63
2022-08-29T21:12:27.493Z,2.35
2022-08-29T21:14:56.094Z,2.05
2022-08-29T21:17:24.606Z,5.13
2022-08-29T21:19:53.238Z,4.60
2022-08-29T21:22:24.786Z,15.32
2022-08-29T21:24:55.643Z,2.97
2022-08-29T21:27:24.447Z,7.85
2022-08-29T21:29:55.939Z,3.38
2022-08-29T21:32:24.752Z,7.55
2022-08-29T21:34:53.101Z,3.65
2022-08-29T21:37:21.793Z,3.33
2022-08-29T21:39:50.197Z,4.22
2022-08-29T21:42:19.909Z,4.00
2022-08-29T21:44:48.585Z,2.03
2022-08-29T21:47:17.955Z,3.33
2022-08-29T21:49:48.471Z,1.23
2022-08-29T21:52:17.410Z,1.92
2022-08-29T21:54:46.259Z,3.10
2022-08-29T21:57:18.350Z,4.88
2022-08-29T21:59:47.655Z,2.83
2022-08-29T22:02:17.554Z,4.57
2022-08-29T22:04:46.073Z,2.45
2022-08-29T22:07:14.461Z,4.63
2022-08-29T22:09:43.644Z,5.07
2022-08-29T22:12:11.978Z,1.98
2022-08-29T22:15:06.604Z,4.20
2022-08-29T22:17:35.113Z,2.90
2022-08-29T22:20:04.977Z,2.75
2022-08-29T22:22:33.497Z,4.97
2022-08-29T22:25:02.519Z,3.20
2022-08-29T22:27:31.981Z,1.73
2022-08-29T22:30:00.521Z,6.63
2022-08-29T22:32:32.309Z,2.92
2022-08-29T22:35:12.398Z,1.23
2022-08-29T22:37:41.518Z,1.23
2022-08-29T22:40:13.877Z,3.55
2022-08-29T22:42:43.325Z,2.65
2022-08-29T22:45:13.984Z,4.53
2022-08-29T22:50:16.375Z,1.45
2022-08-29T22:52:46.097Z,4.47
2022-08-29T22:55:17.710Z,3.07
2022-08-29T22:57:46.760Z,2.95
2022-08-29T23:00:19.397Z,2.13
2022-08-29T23:02:48.861Z,3.63
2022-08-29T23:05:18.027Z,2.72
2022-08-29T23:07:46.949Z,1.10
2022-08-29T23:10:15.738Z,2.13
2022-08-29T23:12:44.234Z,3.53
2022-08-29T23:15:15.362Z,3.90
2022-08-29T23:17:44.849Z,3.60
2022-08-29T23:20:15.026Z,1.40
2022-08-29T23:22:43.973Z,5.22
2022-08-29T23:25:13.477Z,3.70
2022-08-29T23:27:44.782Z,2.10
2022-08-29T23:30:14.607Z,4.43
2022-08-29T23:32:42.945Z,4.38
2022-08-29T23:35:12.542Z,1.83
2022-08-29T23:37:41.068Z,6.13
2022-08-29T23:40:09.896Z,1.20
2022-08-29T23:42:42.379Z,3.03
2022-08-29T23:45:12.191Z,2.43
2022-08-29T23:47:41.253Z,1.25
2022-08-29T23:50:10.123Z,2.50
2022-08-29T23:52:38.600Z,3.60
2022-08-29T23:55:10.110Z,2.15
2022-08-29T23:57:43.328Z,2.08
